createdAt,value
2023-04-12T00:00:17.838Z,14.70
2023-04-12T00:01:41.498Z,14.90
2023-04-12T00:02:45.492Z,14.50
2023-04-12T00:03:51.159Z,15.60
2023-04-12T00:04:57.601Z,15.70
2023-04-12T00:06:03.566Z,15.50
2023-04-12T00:07:06.694Z,15.90
2023-04-12T00:08:10.892Z,14.80
2023-04-12T00:09:14.596Z,15.50
2023-04-12T00:10:17.532Z,15.80
2023-04-12T00:11:20.895Z,14.90
2023-04-12T00:12:24.152Z,15.40
2023-04-12T00:13:27.034Z,15.10
2023-04-12T00:14:30.037Z,14.60
2023-04-12T00:15:32.940Z,14.30
2023-04-12T00:16:37.166Z,14.90
2023-04-12T00:17:40.357Z,13.20
2023-04-12T00:18:45.891Z,12.60
2023-04-12T00:19:50.178Z,13.10
2023-04-12T00:20:53.364Z,13.10
2023-04-12T00:21:56.665Z,11.80
2023-04-12T00:22:59.494Z,10.70
2023-04-12T00:24:02.424Z,10.20
2023-04-12T00:25:06.698Z,10.20
2023-04-12T00:26:09.612Z,10.10
2023-04-12T00:27:13.318Z,9.60
2023-04-12T00:28:16.348Z,9.10
2023-04-12T00:29:19.742Z,9.70
2023-04-12T00:30:24.010Z,9.10
2023-04-12T00:31:27.003Z,9.50
2023-04-12T00:32:30.002Z,9.00
2023-04-12T00:33:34.346Z,9.50
2023-04-12T00:34:37.181Z,8.60
2023-04-12T00:35:40.060Z,8.60
2023-04-12T00:36:43.350Z,8.20
2023-04-12T00:37:46.554Z,8.60
2023-04-12T00:38:49.445Z,8.80
2023-04-12T00:39:52.796Z,9.10
2023-04-12T00:40:55.950Z,9.60
2023-04-12T00:42:03.563Z,9.70
2023-04-12T00:43:06.538Z,9.10
2023-04-12T00:44:10.148Z,8.70
2023-04-12T00:45:14.465Z,9.40
2023-04-12T00:46:20.008Z,8.80
2023-04-12T00:47:23.075Z,8.70
2023-04-12T00:48:28.986Z,8.30
2023-04-12T00:49:34.372Z,8.10
2023-04-12T00:50:37.419Z,8.10
2023-04-12T00:51:40.626Z,8.10
2023-04-12T00:52:43.529Z,7.80
2023-04-12T00:53:46.511Z,7.80
2023-04-12T00:54:50.015Z,8.50
2023-04-12T00:55:53.301Z,8.10
2023-04-12T00:56:59.986Z,8.70
2023-04-12T00:58:03.651Z,7.50
2023-04-12T00:59:06.748Z,7.30
2023-04-12T01:00:13.879Z,7.60
2023-04-12T01:01:17.376Z,7.60
2023-04-12T01:02:20.559Z,7.10
2023-04-12T01:03:24.224Z,6.90
2023-04-12T01:04:28.904Z,6.70
2023-04-12T01:05:36.359Z,7.40
2023-04-12T01:07:05.304Z,6.70
2023-04-12T01:08:34.243Z,7.10
2023-04-12T01:10:05.024Z,6.60
2023-04-12T01:11:40.007Z,6.80
2023-04-12T01:13:07.645Z,6.90
2023-04-12T01:14:34.167Z,6.70
2023-04-12T01:15:45.670Z,7.50
2023-04-12T01:16:51.327Z,7.80
2023-04-12T01:18:00.034Z,8.00
2023-04-12T01:19:13.751Z,9.10
2023-04-12T01:20:23.579Z,7.80
2023-04-12T01:22:53.498Z,8.60
2023-04-12T01:24:14.111Z,9.50
2023-04-12T01:25:39.943Z,9.80
2023-04-12T01:26:48.533Z,10.40
2023-04-12T01:27:57.044Z,10.90
2023-04-12T01:29:03.172Z,11.40
2023-04-12T01:30:08.380Z,10.90
2023-04-12T01:31:14.022Z,10.90
2023-04-12T01:32:18.470Z,12.50
2023-04-12T01:33:22.234Z,12.30
2023-04-12T01:34:28.493Z,12.30
2023-04-12T01:35:34.638Z,13.70
2023-04-12T01:36:40.064Z,12.30
2023-04-12T01:37:43.988Z,12.90
2023-04-12T01:38:47.064Z,12.80
2023-04-12T01:39:50.564Z,13.20
2023-04-12T01:40:55.039Z,13.50
2023-04-12T01:41:57.921Z,14.20
2023-04-12T01:43:05.339Z,14.20
2023-04-12T01:44:08.596Z,14.30
2023-04-12T01:45:11.865Z,14.40
2023-04-12T01:46:22.799Z,15.20
2023-04-12T01:47:27.203Z,15.10
2023-04-12T01:48:30.254Z,15.40
2023-04-12T01:49:45.123Z,16.40
2023-04-12T01:51:06.498Z,16.80
2023-04-12T01:52:18.948Z,15.60
2023-04-12T01:53:48.881Z,16.80
2023-04-12T01:54:57.491Z,16.90
2023-04-12T01:56:07.417Z,18.40
2023-04-12T01:58:17.401Z,17.10
2023-04-12T01:59:24.371Z,18.20
2023-04-12T02:00:28.164Z,18.70
2023-04-12T02:01:31.574Z,19.60
2023-04-12T02:02:36.650Z,19.30
2023-04-12T02:03:43.175Z,19.10
2023-04-12T02:04:47.743Z,20.20
2023-04-12T02:05:52.313Z,20.60
2023-04-12T02:06:57.409Z,22.40
2023-04-12T02:08:02.943Z,19.80
2023-04-12T02:09:06.625Z,20.40
2023-04-12T02:10:14.777Z,21.20
2023-04-12T02:11:17.678Z,20.70
2023-04-12T02:12:20.834Z,20.90
2023-04-12T02:13:23.830Z,20.30
2023-04-12T02:14:27.190Z,20.30
2023-04-12T02:15:30.886Z,21.10
2023-04-12T02:16:35.951Z,20.00
2023-04-12T02:17:41.061Z,19.40
2023-04-12T02:18:44.920Z,21.40
2023-04-12T02:19:50.466Z,21.60
2023-04-12T02:20:55.703Z,20.40
2023-04-12T02:21:58.592Z,20.30
2023-04-12T02:23:01.578Z,20.40
2023-04-12T02:24:04.748Z,20.40
2023-04-12T02:25:08.008Z,22.10
2023-04-12T02:26:11.654Z,21.80
2023-04-12T02:27:14.563Z,21.00
2023-04-12T02:28:17.450Z,21.60
2023-04-12T02:29:20.328Z,20.60
2023-04-12T02:30:23.932Z,20.90
2023-04-12T02:31:30.639Z,21.20
2023-04-12T02:32:33.591Z,20.00
2023-04-12T02:33:37.181Z,20.90
2023-04-12T02:34:44.198Z,19.20
2023-04-12T02:35:52.572Z,19.30
2023-04-12T02:36:56.069Z,18.80
2023-04-12T02:37:58.984Z,19.30
2023-04-12T02:39:05.354Z,19.30
2023-04-12T02:40:11.612Z,19.90
2023-04-12T02:41:19.060Z,20.10
2023-04-12T02:42:21.965Z,19.50
2023-04-12T02:43:25.551Z,18.50
2023-04-12T02:45:47.688Z,19.50
2023-04-12T02:46:50.827Z,18.70
2023-04-12T02:47:55.893Z,19.80
2023-04-12T02:49:01.702Z,19.20
2023-04-12T02:50:09.427Z,20.20
2023-04-12T02:51:21.157Z,18.30
2023-04-12T02:52:25.764Z,19.90
2023-04-12T02:53:42.420Z,19.70
2023-04-12T02:54:57.368Z,19.60
2023-04-12T02:56:01.359Z,19.20
2023-04-12T02:57:05.414Z,19.50
2023-04-12T02:58:11.195Z,19.80
2023-04-12T02:59:18.744Z,19.70
2023-04-12T03:00:39.489Z,19.80
2023-04-12T03:01:46.940Z,20.20
2023-04-12T03:02:59.119Z,19.30
2023-04-12T03:04:04.231Z,19.20
2023-04-12T03:05:27.678Z,19.60
2023-04-12T03:06:32.119Z,21.20
2023-04-12T03:07:38.804Z,19.90
2023-04-12T03:08:42.148Z,19.60
2023-04-12T03:09:47.004Z,19.00
2023-04-12T03:10:56.169Z,19.80
2023-04-12T03:11:59.834Z,19.20
2023-04-12T03:13:05.002Z,18.90
2023-04-12T03:14:17.456Z,19.90
2023-04-12T03:15:23.507Z,20.00
2023-04-12T03:16:29.743Z,19.50
2023-04-12T03:17:41.227Z,18.30
2023-04-12T03:18:44.507Z,19.50
2023-04-12T03:19:49.259Z,19.90
2023-04-12T03:20:56.358Z,18.70
2023-04-12T03:22:00.065Z,18.10
2023-04-12T03:23:03.261Z,19.60
2023-04-12T03:24:07.336Z,18.30
2023-04-12T03:25:12.746Z,17.90
2023-04-12T03:26:20.633Z,17.80
2023-04-12T03:27:32.982Z,17.30
2023-04-12T03:28:36.293Z,19.00
2023-04-12T03:29:42.327Z,19.50
2023-04-12T03:30:46.163Z,18.60
2023-04-12T03:31:49.438Z,18.50
2023-04-12T03:32:52.407Z,18.80
2023-04-12T03:33:56.069Z,19.20
2023-04-12T03:35:00.424Z,19.10
2023-04-12T03:36:04.549Z,18.90
2023-04-12T03:37:07.578Z,17.80
2023-04-12T03:38:15.459Z,19.50
2023-04-12T03:39:18.930Z,18.40
2023-04-12T03:40:25.136Z,18.60
2023-04-12T03:41:33.789Z,17.90
2023-04-12T03:42:39.700Z,19.00
2023-04-12T03:43:50.444Z,18.50
2023-04-12T03:44:54.973Z,18.50
2023-04-12T03:45:58.545Z,19.10
2023-04-12T03:47:01.793Z,18.90
2023-04-12T03:48:12.009Z,19.20
2023-04-12T03:49:18.686Z,18.60
2023-04-12T03:50:23.317Z,17.30
2023-04-12T03:51:31.325Z,18.50
2023-04-12T03:52:40.348Z,19.40
2023-04-12T03:53:43.548Z,18.50
2023-04-12T03:54:50.258Z,18.70
2023-04-12T03:56:00.813Z,18.60
2023-04-12T03:57:07.363Z,18.20
2023-04-12T03:58:31.186Z,18.00
2023-04-12T03:59:34.338Z,18.30
2023-04-12T04:00:37.650Z,19.00
2023-04-12T04:01:43.557Z,19.80
2023-04-12T04:02:47.452Z,19.00
2023-04-12T04:03:51.162Z,18.00
2023-04-12T04:05:04.102Z,17.60
2023-04-12T04:06:08.290Z,18.30
2023-04-12T04:07:12.961Z,17.90
2023-04-12T04:08:17.685Z,18.80
2023-04-12T04:09:29.573Z,17.70
2023-04-12T04:10:33.414Z,18.60
2023-04-12T04:11:37.835Z,19.00
2023-04-12T04:12:42.334Z,18.90
2023-04-12T04:13:47.210Z,19.00
2023-04-12T04:14:54.372Z,17.80
2023-04-12T04:16:10.312Z,17.60
2023-04-12T04:17:14.941Z,18.20
2023-04-12T04:18:18.020Z,19.20
2023-04-12T04:19:21.707Z,17.20
2023-04-12T04:20:26.038Z,18.80
2023-04-12T04:21:30.802Z,18.50
2023-04-12T04:22:34.695Z,18.60
2023-04-12T04:23:38.988Z,17.40
2023-04-12T04:24:42.768Z,18.20
2023-04-12T04:25:46.391Z,17.00
2023-04-12T04:26:50.443Z,17.50
2023-04-12T04:28:02.858Z,16.40
2023-04-12T04:29:06.531Z,16.70
2023-04-12T04:30:15.360Z,17.10
2023-04-12T04:31:22.793Z,17.30
2023-04-12T04:32:26.494Z,16.90
2023-04-12T04:33:33.753Z,15.50
2023-04-12T04:34:37.657Z,16.60
2023-04-12T04:35:45.910Z,16.20
2023-04-12T04:37:02.783Z,15.80
2023-04-12T04:38:05.793Z,15.40
2023-04-12T04:39:10.064Z,16.60
2023-04-12T04:40:21.453Z,16.00
2023-04-12T04:41:26.418Z,16.90
2023-04-12T04:42:33.014Z,16.30
2023-04-12T04:43:46.882Z,17.00
2023-04-12T04:45:02.631Z,16.60
2023-04-12T04:46:07.300Z,16.80
2023-04-12T04:47:10.539Z,16.30
2023-04-12T04:48:13.475Z,16.10
2023-04-12T04:49:16.506Z,16.00
2023-04-12T04:50:24.157Z,16.60
2023-04-12T04:51:27.704Z,16.60
2023-04-12T04:52:31.058Z,15.80
2023-04-12T04:53:38.484Z,16.20
2023-04-12T04:54:41.807Z,15.60
2023-04-12T04:55:44.920Z,16.30
2023-04-12T04:56:47.795Z,15.70
2023-04-12T04:57:52.484Z,16.10
2023-04-12T04:58:57.017Z,15.90
2023-04-12T05:00:00.931Z,15.70
2023-04-12T05:01:05.300Z,16.50
2023-04-12T05:02:08.793Z,15.00
2023-04-12T05:03:12.070Z,14.90
2023-04-12T05:04:15.519Z,15.40
2023-04-12T05:05:18.558Z,15.70
2023-04-12T05:06:22.526Z,16.00
2023-04-12T05:07:26.252Z,16.20
2023-04-12T05:08:29.413Z,15.40
2023-04-12T05:09:32.305Z,16.10
2023-04-12T05:10:35.741Z,16.10
2023-04-12T05:11:39.057Z,16.70
2023-04-12T05:12:45.929Z,16.00
2023-04-12T05:13:50.319Z,15.80
2023-04-12T05:14:58.218Z,15.30
2023-04-12T05:16:12.410Z,15.60
2023-04-12T05:17:16.056Z,14.70
2023-04-12T05:18:22.003Z,15.70
2023-04-12T05:19:26.248Z,15.00
2023-04-12T05:20:29.801Z,16.50
2023-04-12T05:21:33.892Z,15.90
2023-04-12T05:22:36.783Z,15.70
2023-04-12T05:23:44.749Z,14.80
2023-04-12T05:24:48.651Z,15.80
2023-04-12T05:25:51.548Z,16.40
2023-04-12T05:26:54.710Z,14.80
2023-04-12T05:27:57.670Z,14.40
2023-04-12T05:29:01.793Z,15.60
2023-04-12T05:30:05.691Z,15.30
2023-04-12T05:31:09.596Z,16.50
2023-04-12T05:32:14.106Z,16.80
2023-04-12T05:33:17.305Z,16.00
2023-04-12T05:34:22.084Z,15.60
2023-04-12T05:35:31.547Z,16.40
2023-04-12T05:36:35.480Z,16.20
2023-04-12T05:37:39.452Z,14.50
2023-04-12T05:38:43.486Z,15.70
2023-04-12T05:39:48.356Z,14.10
2023-04-12T05:40:54.290Z,14.60
2023-04-12T05:41:59.533Z,15.70
2023-04-12T05:43:03.686Z,16.00
2023-04-12T05:44:07.627Z,15.70
2023-04-12T05:45:12.194Z,15.10
2023-04-12T05:46:16.124Z,14.60
2023-04-12T05:47:20.112Z,14.80
2023-04-12T05:48:23.593Z,16.30
2023-04-12T05:49:30.634Z,16.90
2023-04-12T05:50:34.533Z,19.60
2023-04-12T05:51:41.271Z,16.60
2023-04-12T05:52:51.070Z,15.60
2023-04-12T05:53:55.150Z,16.50
2023-04-12T05:54:58.507Z,15.50
2023-04-12T05:56:02.151Z,16.40
2023-04-12T05:57:05.710Z,15.80
2023-04-12T05:58:09.008Z,17.30
2023-04-12T05:59:12.514Z,15.90
2023-04-12T06:00:18.983Z,15.80
2023-04-12T06:01:22.041Z,16.20
2023-04-12T06:02:26.335Z,16.50
2023-04-12T06:03:31.377Z,15.90
2023-04-12T06:04:50.380Z,15.50
2023-04-12T06:05:54.259Z,16.80
2023-04-12T06:06:57.838Z,16.30
2023-04-12T06:08:01.003Z,16.60
2023-04-12T06:09:05.040Z,16.70
2023-04-12T06:10:10.071Z,16.10
2023-04-12T06:11:13.301Z,15.80
2023-04-12T06:12:18.214Z,15.40
2023-04-12T06:13:21.594Z,15.30
2023-04-12T06:14:24.658Z,15.40
2023-04-12T06:15:27.702Z,16.30
2023-04-12T06:16:30.841Z,16.20
2023-04-12T06:17:34.680Z,17.70
2023-04-12T06:18:38.243Z,16.90
2023-04-12T06:19:41.516Z,16.50
2023-04-12T06:20:45.698Z,16.30
2023-04-12T06:21:49.058Z,17.80
2023-04-12T06:22:51.931Z,18.10
2023-04-12T06:23:54.885Z,17.40
2023-04-12T06:24:58.752Z,17.80
2023-04-12T06:26:01.702Z,17.90
2023-04-12T06:27:05.055Z,18.10
2023-04-12T06:28:08.248Z,16.70
2023-04-12T06:29:18.515Z,17.00
2023-04-12T06:30:22.476Z,17.50
2023-04-12T06:31:28.499Z,17.20
2023-04-12T06:32:32.373Z,18.30
2023-04-12T06:33:36.889Z,18.00
2023-04-12T06:34:43.562Z,18.30
2023-04-12T06:35:50.606Z,17.30
2023-04-12T06:36:53.620Z,17.30
2023-04-12T06:37:56.529Z,17.60
2023-04-12T06:38:59.667Z,17.40
2023-04-12T06:40:02.500Z,17.30
2023-04-12T06:41:06.305Z,17.00
2023-04-12T06:42:09.188Z,18.10
2023-04-12T06:43:19.228Z,17.20
2023-04-12T06:44:22.143Z,18.20
2023-04-12T06:45:25.090Z,17.20
2023-04-12T06:46:28.903Z,16.80
2023-04-12T06:47:32.876Z,17.10
2023-04-12T06:48:35.889Z,18.60
2023-04-12T06:49:39.690Z,16.60
2023-04-12T06:50:42.545Z,17.20
2023-04-12T06:51:46.007Z,16.60
2023-04-12T06:52:48.984Z,17.20
2023-04-12T06:53:51.805Z,16.20
2023-04-12T06:54:56.998Z,17.30
2023-04-12T06:56:04.207Z,18.10
2023-04-12T06:57:13.901Z,17.40
2023-04-12T06:59:19.871Z,15.90
2023-04-12T07:00:23.045Z,15.80
2023-04-12T07:01:26.068Z,17.40
2023-04-12T07:02:29.178Z,16.90
2023-04-12T07:03:33.475Z,16.70
2023-04-12T07:04:36.718Z,17.20
2023-04-12T07:05:39.731Z,16.40
2023-04-12T07:06:42.763Z,16.90
2023-04-12T07:07:45.612Z,16.60
2023-04-12T07:08:48.491Z,16.00
2023-04-12T07:09:53.099Z,16.80
2023-04-12T07:10:56.130Z,16.10
2023-04-12T07:12:00.461Z,16.60
2023-04-12T07:13:07.185Z,17.30
2023-04-12T07:14:10.039Z,15.90
2023-04-12T07:15:12.914Z,16.50
2023-04-12T07:16:16.054Z,17.00
2023-04-12T07:17:19.115Z,16.60
2023-04-12T07:18:22.052Z,16.80
2023-04-12T07:19:24.931Z,17.00
2023-04-12T07:20:27.860Z,16.30
2023-04-12T07:21:30.785Z,16.50
2023-04-12T07:22:33.765Z,16.20
2023-04-12T07:23:36.621Z,16.80
2023-04-12T07:24:39.483Z,15.80
2023-04-12T07:25:42.486Z,15.70
2023-04-12T07:26:45.329Z,16.90
2023-04-12T07:27:49.914Z,15.40
2023-04-12T07:28:55.084Z,16.00
2023-04-12T07:29:58.874Z,16.10
2023-04-12T07:31:04.808Z,16.70
2023-04-12T07:32:09.098Z,15.80
2023-04-12T07:33:19.225Z,16.00
2023-04-12T07:34:24.426Z,16.00
2023-04-12T07:35:27.526Z,16.50
2023-04-12T07:36:31.444Z,16.00
2023-04-12T07:37:35.971Z,15.60
2023-04-12T07:38:38.970Z,15.70
2023-04-12T07:39:41.875Z,15.90
2023-04-12T07:40:45.146Z,15.60
2023-04-12T07:41:49.677Z,16.00
2023-04-12T07:42:52.528Z,15.90
2023-04-12T07:43:55.382Z,16.40
2023-04-12T07:44:58.296Z,15.60
2023-04-12T07:46:04.642Z,15.50
2023-04-12T07:47:07.569Z,15.20
2023-04-12T07:48:11.984Z,15.30
2023-04-12T07:49:14.888Z,15.30
2023-04-12T07:50:17.876Z,14.90
2023-04-12T07:51:20.764Z,14.60
2023-04-12T07:52:23.720Z,14.20
2023-04-12T07:53:28.733Z,14.80
2023-04-12T07:54:31.652Z,14.20
2023-04-12T07:55:34.480Z,14.90
2023-04-12T07:56:37.435Z,15.70
2023-04-12T07:57:41.162Z,15.60
2023-04-12T07:58:44.044Z,15.70
2023-04-12T07:59:47.053Z,15.80
2023-04-12T08:00:51.127Z,15.80
2023-04-12T08:01:54.055Z,14.90
2023-04-12T08:02:57.067Z,16.00
2023-04-12T08:04:00.519Z,15.00
2023-04-12T08:05:03.693Z,15.40
2023-04-12T08:06:07.906Z,15.70
2023-04-12T08:07:10.881Z,14.50
2023-04-12T08:08:13.743Z,14.20
2023-04-12T08:09:16.667Z,15.30
2023-04-12T08:10:19.917Z,15.20
2023-04-12T08:11:22.780Z,14.60
2023-04-12T08:12:26.261Z,14.40
2023-04-12T08:13:29.178Z,13.70
2023-04-12T08:14:32.015Z,14.90
2023-04-12T08:15:35.016Z,13.90
2023-04-12T08:16:37.912Z,15.00
2023-04-12T08:17:43.978Z,14.00
2023-04-12T08:18:46.999Z,13.30
2023-04-12T08:19:49.831Z,14.40
2023-04-12T08:20:52.755Z,14.50
2023-04-12T08:21:55.735Z,14.70
2023-04-12T08:22:58.904Z,14.00
2023-04-12T08:24:01.861Z,14.10
2023-04-12T08:25:05.036Z,14.30
2023-04-12T08:26:07.871Z,14.40
2023-04-12T08:27:13.912Z,13.70
2023-04-12T08:28:17.002Z,14.80
2023-04-12T08:29:19.891Z,15.20
2023-04-12T08:30:26.871Z,13.80
2023-04-12T08:31:29.958Z,14.60
2023-04-12T08:32:32.954Z,14.80
2023-04-12T08:33:35.899Z,14.70
2023-04-12T08:34:39.687Z,14.80
2023-04-12T08:35:42.548Z,14.20
2023-04-12T08:36:45.916Z,13.60
2023-04-12T08:37:49.268Z,14.20
2023-04-12T08:38:53.231Z,13.90
2023-04-12T08:39:56.232Z,14.10
2023-04-12T08:40:59.360Z,14.00
2023-04-12T08:42:04.965Z,13.40
2023-04-12T08:43:11.485Z,13.40
2023-04-12T08:44:15.639Z,14.80
2023-04-12T08:45:18.534Z,13.90
2023-04-12T08:46:22.157Z,14.40
2023-04-12T08:47:25.097Z,13.60
2023-04-12T08:48:29.079Z,14.40
2023-04-12T08:49:33.276Z,14.80
2023-04-12T08:50:39.815Z,15.10
2023-04-12T08:51:43.420Z,14.80
2023-04-12T08:52:48.936Z,14.20
2023-04-12T08:53:54.172Z,14.30
2023-04-12T08:54:57.061Z,15.10
2023-04-12T08:56:00.246Z,16.30
2023-04-12T08:57:08.293Z,13.80
2023-04-12T08:58:14.536Z,16.10
2023-04-12T08:59:17.800Z,15.60
2023-04-12T09:00:21.648Z,15.00
2023-04-12T09:01:25.114Z,14.80
2023-04-12T09:02:28.744Z,14.10
2023-04-12T09:03:33.705Z,14.10
2023-04-12T09:04:48.782Z,13.80
2023-04-12T09:05:51.775Z,14.10
2023-04-12T09:06:54.844Z,13.00
2023-04-12T09:07:58.702Z,13.20
2023-04-12T09:10:09.841Z,13.00
2023-04-12T09:11:30.929Z,13.30
2023-04-12T09:12:34.021Z,13.80
2023-04-12T09:13:37.255Z,14.30
2023-04-12T09:14:43.691Z,13.40
2023-04-12T09:15:50.822Z,14.30
2023-04-12T09:16:53.747Z,14.80
2023-04-12T09:18:06.182Z,15.00
2023-04-12T09:19:09.608Z,15.10
2023-04-12T09:20:12.529Z,15.30
2023-04-12T09:21:15.512Z,14.30
2023-04-12T09:22:18.802Z,13.70
2023-04-12T09:23:26.529Z,13.90
2023-04-12T09:24:29.978Z,15.50
2023-04-12T09:25:53.997Z,13.60
2023-04-12T09:27:05.076Z,15.00
2023-04-12T09:28:27.922Z,15.70
2023-04-12T09:29:31.556Z,14.80
2023-04-12T09:30:44.946Z,16.00
2023-04-12T09:32:04.850Z,15.30
2023-04-12T09:33:13.664Z,15.20
2023-04-12T09:34:16.572Z,15.00
2023-04-12T09:35:33.138Z,13.80
2023-04-12T09:36:40.125Z,13.90
2023-04-12T09:37:43.172Z,13.90
2023-04-12T09:39:04.258Z,14.30
2023-04-12T09:40:09.388Z,14.10
2023-04-12T09:41:20.240Z,14.00
2023-04-12T09:42:32.985Z,14.20
2023-04-12T09:43:38.694Z,14.40
2023-04-12T09:44:41.652Z,14.00
2023-04-12T09:45:44.645Z,13.00
2023-04-12T09:46:52.264Z,13.90
2023-04-12T09:47:55.533Z,14.40
2023-04-12T09:48:59.354Z,14.50
2023-04-12T09:50:04.688Z,14.40
2023-04-12T09:51:08.253Z,13.90
2023-04-12T09:52:12.870Z,13.80
2023-04-12T09:53:20.269Z,13.70
2023-04-12T09:54:24.022Z,13.90
2023-04-12T09:55:28.798Z,14.00
2023-04-12T09:56:33.948Z,13.20
2023-04-12T09:57:42.321Z,12.40
2023-04-12T09:58:46.969Z,12.40
2023-04-12T09:59:52.779Z,13.10
2023-04-12T10:00:59.805Z,12.20
2023-04-12T10:02:07.298Z,12.20
2023-04-12T10:03:10.622Z,12.20
2023-04-12T10:04:14.298Z,13.10
2023-04-12T10:05:19.674Z,11.10
2023-04-12T10:06:22.987Z,11.20
2023-04-12T10:07:27.342Z,11.40
2023-04-12T10:08:31.783Z,11.70
2023-04-12T10:09:37.735Z,11.00
2023-04-12T10:10:40.685Z,11.50
2023-04-12T10:11:45.452Z,10.70
2023-04-12T10:12:49.775Z,11.20
2023-04-12T10:13:52.777Z,10.80
2023-04-12T10:14:56.151Z,11.20
2023-04-12T10:16:00.457Z,10.80
2023-04-12T10:17:05.423Z,11.90
2023-04-12T10:18:11.379Z,11.40
2023-04-12T10:19:15.057Z,11.40
2023-04-12T10:20:19.785Z,11.60
2023-04-12T10:21:23.158Z,10.40
2023-04-12T10:22:26.793Z,10.70
2023-04-12T10:23:32.289Z,10.70
2023-04-12T10:24:35.246Z,10.40
2023-04-12T10:25:42.939Z,10.70
2023-04-12T10:26:46.025Z,11.30
2023-04-12T10:27:49.444Z,10.50
2023-04-12T10:29:27.107Z,11.40
2023-04-12T10:30:31.962Z,11.20
2023-04-12T10:31:35.209Z,10.50
2023-04-12T10:32:38.174Z,10.90
2023-04-12T10:33:42.989Z,11.70
2023-04-12T10:34:51.807Z,10.70
2023-04-12T10:36:00.702Z,10.60
2023-04-12T10:37:04.471Z,11.70
2023-04-12T10:38:07.331Z,10.30
2023-04-12T10:39:11.311Z,10.40
2023-04-12T10:40:19.260Z,10.60
2023-04-12T10:41:22.470Z,10.90
2023-04-12T10:42:29.610Z,11.10
2023-04-12T10:43:36.076Z,10.50
2023-04-12T10:44:38.961Z,10.80
2023-04-12T10:45:42.058Z,11.10
2023-04-12T10:46:44.909Z,11.00
2023-04-12T10:48:01.890Z,10.20
2023-04-12T10:49:09.825Z,10.10
2023-04-12T10:50:24.534Z,10.70
2023-04-12T10:51:28.641Z,10.40
2023-04-12T10:52:41.799Z,10.90
2023-04-12T10:53:46.869Z,10.70
2023-04-12T10:54:58.185Z,9.80
2023-04-12T10:56:01.272Z,10.30
2023-04-12T10:57:07.086Z,10.00
2023-04-12T10:58:48.966Z,11.60
2023-04-12T10:59:59.653Z,9.90
2023-04-12T11:01:11.764Z,10.40
2023-04-12T11:02:15.983Z,11.10
2023-04-12T11:03:23.419Z,11.70
2023-04-12T11:04:27.148Z,10.10
2023-04-12T11:06:19.925Z,9.50
2023-04-12T11:08:07.546Z,10.20
2023-04-12T11:09:28.640Z,10.60
2023-04-12T11:10:31.909Z,9.40
2023-04-12T11:11:35.249Z,9.80
2023-04-12T11:12:39.345Z,9.80
2023-04-12T11:13:42.652Z,10.10
2023-04-12T11:14:48.350Z,9.30
2023-04-12T11:15:57.024Z,10.10
2023-04-12T11:17:23.974Z,9.80
2023-04-12T11:18:28.053Z,9.20
2023-04-12T11:19:35.034Z,10.60
2023-04-12T11:20:39.736Z,10.20
2023-04-12T11:21:43.648Z,10.20
2023-04-12T11:22:46.626Z,10.80
2023-04-12T11:23:51.126Z,10.30
2023-04-12T11:24:56.719Z,10.20
2023-04-12T11:25:59.687Z,10.30
2023-04-12T11:27:03.279Z,10.50
2023-04-12T11:28:17.235Z,10.70
2023-04-12T11:29:24.630Z,10.10
2023-04-12T11:30:27.466Z,10.20
2023-04-12T11:31:30.309Z,11.00
2023-04-12T11:32:34.865Z,10.20
2023-04-12T11:33:40.094Z,9.70
2023-04-12T11:34:45.303Z,10.00
2023-04-12T11:35:48.682Z,9.60
2023-04-12T11:36:55.086Z,9.30
2023-04-12T11:37:58.511Z,9.50
2023-04-12T11:39:02.071Z,9.70
2023-04-12T11:40:05.867Z,10.50
2023-04-12T11:41:09.173Z,10.10
2023-04-12T11:42:16.372Z,10.00
2023-04-12T11:43:22.431Z,10.20
2023-04-12T11:44:25.741Z,10.70
2023-04-12T11:45:31.586Z,10.10
2023-04-12T11:46:35.678Z,10.80
2023-04-12T11:47:43.706Z,10.50
2023-04-12T11:48:47.195Z,10.60
2023-04-12T11:49:54.231Z,10.60
2023-04-12T11:51:10.161Z,10.20
2023-04-12T11:52:15.261Z,10.40
2023-04-12T11:53:19.569Z,10.00
2023-04-12T11:54:32.453Z,10.40
2023-04-12T11:55:35.655Z,10.30
2023-04-12T11:56:38.838Z,10.00
2023-04-12T11:57:41.743Z,9.90
2023-04-12T11:58:47.849Z,10.30
2023-04-12T11:59:50.841Z,10.10
2023-04-12T12:00:54.854Z,9.60
2023-04-12T12:01:58.790Z,9.70
2023-04-12T12:03:07.695Z,10.40
2023-04-12T12:04:11.808Z,10.00
2023-04-12T12:05:15.059Z,9.50
2023-04-12T12:06:19.876Z,9.30
2023-04-12T12:07:24.435Z,9.20
2023-04-12T12:08:27.760Z,9.10
2023-04-12T12:09:31.440Z,9.30
2023-04-12T12:10:55.506Z,9.10
2023-04-12T12:12:02.885Z,8.90
2023-04-12T12:13:12.765Z,9.40
2023-04-12T12:14:19.774Z,8.60
2023-04-12T12:15:22.591Z,9.60
2023-04-12T12:16:30.609Z,8.80
2023-04-12T12:17:38.682Z,8.70
2023-04-12T12:18:50.278Z,9.60
2023-04-12T12:19:58.254Z,9.20
2023-04-12T12:21:01.391Z,9.10
2023-04-12T12:22:14.356Z,9.20
2023-04-12T12:23:33.457Z,9.60
2023-04-12T12:24:39.750Z,8.80
2023-04-12T12:25:48.215Z,8.70
2023-04-12T12:26:51.243Z,9.80
2023-04-12T12:27:57.838Z,9.50
2023-04-12T12:29:01.261Z,9.70
2023-04-12T12:30:07.538Z,10.80
2023-04-12T12:31:11.437Z,9.50
2023-04-12T12:32:15.122Z,9.30
2023-04-12T12:33:24.821Z,9.50
2023-04-12T12:34:34.967Z,9.50
2023-04-12T12:35:38.118Z,9.60
2023-04-12T12:36:40.938Z,9.70
2023-04-12T12:37:56.097Z,9.40
2023-04-12T12:39:20.251Z,9.10
2023-04-12T12:40:32.618Z,9.20
2023-04-12T12:41:36.215Z,8.90
2023-04-12T12:42:56.346Z,10.50
2023-04-12T12:44:00.325Z,10.10
2023-04-12T12:45:04.837Z,10.20
2023-04-12T12:46:07.740Z,10.30
2023-04-12T12:47:14.534Z,10.30
2023-04-12T12:48:19.536Z,9.70
2023-04-12T12:49:22.534Z,9.60
2023-04-12T12:50:27.549Z,9.30
2023-04-12T12:51:31.573Z,9.80
2023-04-12T12:52:34.513Z,9.90
2023-04-12T12:53:38.435Z,9.50
2023-04-12T12:54:42.043Z,10.00
2023-04-12T12:55:44.966Z,9.90
2023-04-12T12:56:47.964Z,9.80
2023-04-12T12:58:07.371Z,9.90
2023-04-12T12:59:10.741Z,10.50
2023-04-12T13:00:15.410Z,11.40
2023-04-12T13:01:18.329Z,10.80
2023-04-12T13:02:21.398Z,11.00
2023-04-12T13:03:24.719Z,10.80
2023-04-12T13:04:28.225Z,9.20
2023-04-12T13:05:31.258Z,10.70
2023-04-12T13:06:34.093Z,11.00
2023-04-12T13:07:37.055Z,10.10
2023-04-12T13:08:39.956Z,10.70
2023-04-12T13:09:42.931Z,10.70
2023-04-12T13:10:45.838Z,11.70
2023-04-12T13:11:54.780Z,10.70
2023-04-12T13:12:58.846Z,10.00
2023-04-12T13:14:02.032Z,11.50
2023-04-12T13:15:18.121Z,10.90
2023-04-12T13:16:26.819Z,11.20
2023-04-12T13:17:31.291Z,11.20
2023-04-12T13:18:34.180Z,11.00
2023-04-12T13:19:37.362Z,11.10
2023-04-12T13:20:40.283Z,11.60
2023-04-12T13:21:43.150Z,10.80
2023-04-12T13:22:46.126Z,11.20
2023-04-12T13:23:49.019Z,11.20
2023-04-12T13:24:51.905Z,10.00
2023-04-12T13:25:54.794Z,10.10
2023-04-12T13:26:58.363Z,10.00
2023-04-12T13:28:01.222Z,10.10
2023-04-12T13:29:04.050Z,10.30
2023-04-12T13:30:07.588Z,10.30
2023-04-12T13:31:10.672Z,9.70
2023-04-12T13:32:14.288Z,9.70
2023-04-12T13:33:21.006Z,9.40
2023-04-12T13:34:25.049Z,9.40
2023-04-12T13:35:27.897Z,9.70
2023-04-12T13:36:31.140Z,9.80
2023-04-12T13:37:34.380Z,10.00
2023-04-12T13:38:37.224Z,10.70
2023-04-12T13:39:40.407Z,9.90
2023-04-12T13:40:43.317Z,9.70
2023-04-12T13:41:46.258Z,9.50
2023-04-12T13:42:49.114Z,10.70
2023-04-12T13:43:52.073Z,9.10
2023-04-12T13:44:54.970Z,9.30
2023-04-12T13:45:57.906Z,9.20
2023-04-12T13:47:00.981Z,10.00
2023-04-12T13:48:04.059Z,9.60
2023-04-12T13:49:07.057Z,9.60
2023-04-12T13:50:10.497Z,9.70
2023-04-12T13:51:13.377Z,9.30
2023-04-12T13:52:16.237Z,9.70
2023-04-12T13:53:19.085Z,9.00
2023-04-12T13:54:22.058Z,9.60
2023-04-12T13:55:25.001Z,9.20
2023-04-12T13:56:30.680Z,9.00
2023-04-12T13:57:35.072Z,8.80
2023-04-12T13:58:39.986Z,9.40
2023-04-12T13:59:43.018Z,9.00
2023-04-12T14:00:46.130Z,8.60
2023-04-12T14:01:49.214Z,9.20
2023-04-12T14:02:52.331Z,8.90
2023-04-12T14:03:55.883Z,9.50
2023-04-12T14:05:00.203Z,9.40
2023-04-12T14:06:03.399Z,9.30
2023-04-12T14:07:06.218Z,9.50
2023-04-12T14:08:09.027Z,10.00
2023-04-12T14:09:25.408Z,10.00
2023-04-12T14:10:28.391Z,9.90
2023-04-12T14:11:31.340Z,10.00
2023-04-12T14:12:34.150Z,10.80
2023-04-12T14:13:37.110Z,10.50
2023-04-12T14:14:40.549Z,12.10
2023-04-12T14:15:43.423Z,10.10
2023-04-12T14:16:46.741Z,9.50
2023-04-12T14:17:49.827Z,10.20